sensor_id;sensor_type;location;lat;lon;timestamp;pressure;altitude;pressure_sealevel;temperature;humidity
63088;BME280;49173;43.164;27.786;2023-02-23T00:01:55;100656.41;;;6.26;83.52
63088;BME280;49173;43.164;27.786;2023-02-23T00:04:23;100657.94;;;6.33;82.88
63088;BME280;49173;43.164;27.786;2023-02-23T00:06:49;100652.38;;;6.41;83.17
63088;BME280;49173;43.164;27.786;2023-02-23T00:09:18;100647.81;;;6.45;83.54
63088;BME280;49173;43.164;27.786;2023-02-23T00:11:51;100651.28;;;6.47;83.53
63088;BME280;49173;43.164;27.786;2023-02-23T00:14:19;100645.03;;;6.48;83.78
63088;BME280;49173;43.164;27.786;2023-02-23T00:16:47;100650.28;;;6.51;84.86
63088;BME280;49173;43.164;27.786;2023-02-23T00:19:13;100658.22;;;6.52;85.06
63088;BME280;49173;43.164;27.786;2023-02-23T00:21:40;100643.09;;;6.53;85.25
63088;BME280;49173;43.164;27.786;2023-02-23T00:24:11;100647.34;;;6.58;85.39
63088;BME280;49173;43.164;27.786;2023-02-23T00:26:40;100645.63;;;6.57;85.34
63088;BME280;49173;43.164;27.786;2023-02-23T00:29:15;100646.53;;;6.56;85.45
63088;BME280;49173;43.164;27.786;2023-02-23T00:31:46;100648.28;;;6.57;86.05
63088;BME280;49173;43.164;27.786;2023-02-23T00:34:14;100652.03;;;6.52;85.75
63088;BME280;49173;43.164;27.786;2023-02-23T00:36:41;100647.63;;;6.51;86.35
63088;BME280;49173;43.164;27.786;2023-02-23T00:39:10;100642.47;;;6.45;87.02
63088;BME280;49173;43.164;27.786;2023-02-23T00:42:02;100641.56;;;6.46;86.80
63088;BME280;49173;43.164;27.786;2023-02-23T00:44:31;100639.75;;;6.46;87.24
63088;BME280;49173;43.164;27.786;2023-02-23T00:46:59;100638.03;;;6.45;87.55
63088;BME280;49173;43.164;27.786;2023-02-23T00:49:25;100640.53;;;6.50;87.24
63088;BME280;49173;43.164;27.786;2023-02-23T00:51:52;100648.44;;;6.53;87.07
63088;BME280;49173;43.164;27.786;2023-02-23T00:54:18;100637.66;;;6.56;86.87
63088;BME280;49173;43.164;27.786;2023-02-23T00:56:45;100643.03;;;6.54;86.70
63088;BME280;49173;43.164;27.786;2023-02-23T00:59:12;100640.44;;;6.53;87.07
63088;BME280;49173;43.164;27.786;2023-02-23T01:01:39;100647.41;;;6.57;86.72
63088;BME280;49173;43.164;27.786;2023-02-23T01:04:06;100634.06;;;6.57;86.71
63088;BME280;49173;43.164;27.786;2023-02-23T01:06:33;100636.81;;;6.54;86.62
63088;BME280;49173;43.164;27.786;2023-02-23T01:09:06;100629.75;;;6.53;87.07
63088;BME280;49173;43.164;27.786;2023-02-23T01:11:33;100631.34;;;6.58;86.51
63088;BME280;49173;43.164;27.786;2023-02-23T01:14:00;100626.16;;;6.54;86.57
63088;BME280;49173;43.164;27.786;2023-02-23T01:16:29;100625.34;;;6.52;87.37
63088;BME280;49173;43.164;27.786;2023-02-23T01:18:59;100627.97;;;6.53;87.17
63088;BME280;49173;43.164;27.786;2023-02-23T01:21:28;100627.91;;;6.55;86.77
63088;BME280;49173;43.164;27.786;2023-02-23T01:23:55;100625.41;;;6.50;86.88
63088;BME280;49173;43.164;27.786;2023-02-23T01:26:27;100629.88;;;6.50;87.22
63088;BME280;49173;43.164;27.786;2023-02-23T01:28:58;100628.94;;;6.51;86.92
63088;BME280;49173;43.164;27.786;2023-02-23T01:31:26;100617.41;;;6.50;86.60
63088;BME280;49173;43.164;27.786;2023-02-23T01:33:57;100625.34;;;6.52;86.21
63088;BME280;49173;43.164;27.786;2023-02-23T01:36:24;100623.75;;;6.46;86.13
63088;BME280;49173;43.164;27.786;2023-02-23T01:38:51;100621.16;;;6.45;86.09
63088;BME280;49173;43.164;27.786;2023-02-23T01:41:22;100610.50;;;6.45;85.84
63088;BME280;49173;43.164;27.786;2023-02-23T01:44:06;100612.34;;;6.43;85.91
63088;BME280;49173;43.164;27.786;2023-02-23T01:46:34;100614.28;;;6.38;85.76
63088;BME280;49173;43.164;27.786;2023-02-23T01:49:01;100611.69;;;6.36;85.36
63088;BME280;49173;43.164;27.786;2023-02-23T01:51:35;100616.16;;;6.36;86.07
63088;BME280;49173;43.164;27.786;2023-02-23T01:54:09;100604.50;;;6.38;86.42
63088;BME280;49173;43.164;27.786;2023-02-23T01:56:43;100609.75;;;6.40;86.54
63088;BME280;49173;43.164;27.786;2023-02-23T01:59:12;100615.22;;;6.37;86.34
63088;BME280;49173;43.164;27.786;2023-02-23T02:01:41;100615.16;;;6.38;86.00
63088;BME280;49173;43.164;27.786;2023-02-23T02:04:09;100614.34;;;6.36;86.43
63088;BME280;49173;43.164;27.786;2023-02-23T02:06:43;100620.63;;;6.33;87.18
63088;BME280;49173;43.164;27.786;2023-02-23T02:09:14;100621.41;;;6.37;87.14
63088;BME280;49173;43.164;27.786;2023-02-23T02:11:44;100627.72;;;6.35;86.72
63088;BME280;49173;43.164;27.786;2023-02-23T02:14:18;100622.41;;;6.35;86.42
63088;BME280;49173;43.164;27.786;2023-02-23T02:25:23;100638.34;;;6.36;86.75
63088;BME280;49173;43.164;27.786;2023-02-23T02:39:40;100641.06;;;6.35;88.91
63088;BME280;49173;43.164;27.786;2023-02-23T02:42:36;100649.94;;;6.33;88.76
63088;BME280;49173;43.164;27.786;2023-02-23T02:45:25;100653.47;;;6.36;89.00
63088;BME280;49173;43.164;27.786;2023-02-23T02:48:13;100649.06;;;6.35;89.10
63088;BME280;49173;43.164;27.786;2023-02-23T02:50:54;100646.41;;;6.33;87.90
63088;BME280;49173;43.164;27.786;2023-02-23T02:53:40;100658.00;;;6.32;87.98
63088;BME280;49173;43.164;27.786;2023-02-23T02:56:10;100662.47;;;6.31;87.91
63088;BME280;49173;43.164;27.786;2023-02-23T02:58:38;100661.66;;;6.29;88.67
63088;BME280;49173;43.164;27.786;2023-02-23T03:01:12;100655.41;;;6.30;89.08
63088;BME280;49173;43.164;27.786;2023-02-23T03:04:03;100659.88;;;6.30;89.25
63088;BME280;49173;43.164;27.786;2023-02-23T03:07:03;100668.00;;;6.25;89.44
63088;BME280;49173;43.164;27.786;2023-02-23T03:13:18;100665.69;;;6.15;90.70
63088;BME280;49173;43.164;27.786;2023-02-23T03:19:21;100658.47;;;6.18;91.98
63088;BME280;49173;43.164;27.786;2023-02-23T03:22:20;100669.97;;;6.20;92.77
63088;BME280;49173;43.164;27.786;2023-02-23T03:25:13;100674.38;;;6.20;93.34
63088;BME280;49173;43.164;27.786;2023-02-23T03:28:18;100674.38;;;6.21;93.58
63088;BME280;49173;43.164;27.786;2023-02-23T03:31:14;100668.88;;;6.26;93.53
63088;BME280;49173;43.164;27.786;2023-02-23T03:34:11;100668.84;;;6.27;93.88
63088;BME280;49173;43.164;27.786;2023-02-23T03:37:09;100672.41;;;6.26;94.54
63088;BME280;49173;43.164;27.786;2023-02-23T03:40:03;100669.78;;;6.25;94.66
63088;BME280;49173;43.164;27.786;2023-02-23T03:42:52;100686.75;;;6.22;95.12
63088;BME280;49173;43.164;27.786;2023-02-23T03:45:39;100690.34;;;6.21;94.91
63088;BME280;49173;43.164;27.786;2023-02-23T03:48:25;100678.97;;;6.16;95.68
63088;BME280;49173;43.164;27.786;2023-02-23T03:51:11;100682.50;;;6.17;96.08
63088;BME280;49173;43.164;27.786;2023-02-23T03:54:13;100676.09;;;6.22;96.30
63088;BME280;49173;43.164;27.786;2023-02-23T03:57:00;100689.50;;;6.19;96.17
63088;BME280;49173;43.164;27.786;2023-02-23T03:59:52;100693.09;;;6.18;96.66
63088;BME280;49173;43.164;27.786;2023-02-23T04:02:39;100703.69;;;6.20;97.10
63088;BME280;49173;43.164;27.786;2023-02-23T04:05:25;100701.16;;;6.17;96.99
63088;BME280;49173;43.164;27.786;2023-02-23T04:08:14;100701.28;;;6.12;97.42
63088;BME280;49173;43.164;27.786;2023-02-23T04:11:11;100701.97;;;6.19;97.78
63088;BME280;49173;43.164;27.786;2023-02-23T04:13:59;100688.69;;;6.17;98.12
63088;BME280;49173;43.164;27.786;2023-02-23T04:16:28;100695.69;;;6.21;97.54
63088;BME280;49173;43.164;27.786;2023-02-23T04:18:55;100699.97;;;6.25;97.97
63088;BME280;49173;43.164;27.786;2023-02-23T04:21:21;100695.50;;;6.27;98.01
63088;BME280;49173;43.164;27.786;2023-02-23T04:23:46;100701.63;;;6.29;97.87
63088;BME280;49173;43.164;27.786;2023-02-23T04:26:12;100704.38;;;6.26;98.13
63088;BME280;49173;43.164;27.786;2023-02-23T04:28:38;100699.97;;;6.25;98.01
63088;BME280;49173;43.164;27.786;2023-02-23T04:31:05;100699.91;;;6.28;98.25
63088;BME280;49173;43.164;27.786;2023-02-23T04:33:31;100699.72;;;6.33;97.91
63088;BME280;49173;43.164;27.786;2023-02-23T04:35:57;100700.66;;;6.32;97.95
63088;BME280;49173;43.164;27.786;2023-02-23T04:38:22;100700.56;;;6.35;97.53
63088;BME280;49173;43.164;27.786;2023-02-23T04:40:49;100700.66;;;6.32;97.64
63088;BME280;49173;43.164;27.786;2023-02-23T04:43:15;100714.78;;;6.34;97.72
63088;BME280;49173;43.164;27.786;2023-02-23T04:45:41;100711.25;;;6.35;98.25
63088;BME280;49173;43.164;27.786;2023-02-23T04:48:08;100714.78;;;6.36;98.10
63088;BME280;49173;43.164;27.786;2023-02-23T04:50:34;100715.72;;;6.33;98.29
63088;BME280;49173;43.164;27.786;2023-02-23T04:53:00;100716.47;;;6.38;98.37
63088;BME280;49173;43.164;27.786;2023-02-23T04:55:26;100716.50;;;6.37;98.31
63088;BME280;49173;43.164;27.786;2023-02-23T04:57:56;100715.84;;;6.30;98.62
63088;BME280;49173;43.164;27.786;2023-02-23T05:00:24;100721.91;;;6.33;98.73
63088;BME280;49173;43.164;27.786;2023-02-23T05:02:50;100727.25;;;6.33;98.93
63088;BME280;49173;43.164;27.786;2023-02-23T05:05:16;100721.06;;;6.33;99.41
63088;BME280;49173;43.164;27.786;2023-02-23T05:07:42;100723.84;;;6.30;99.70
63088;BME280;49173;43.164;27.786;2023-02-23T05:10:09;100729.09;;;6.31;99.86
63088;BME280;49173;43.164;27.786;2023-02-23T05:12:35;100727.41;;;6.29;100.00
63088;BME280;49173;43.164;27.786;2023-02-23T05:15:01;100726.38;;;6.35;100.00
63088;BME280;49173;43.164;27.786;2023-02-23T05:17:27;100739.81;;;6.30;100.00
63088;BME280;49173;43.164;27.786;2023-02-23T05:19:53;100739.63;;;6.36;100.00
63088;BME280;49173;43.164;27.786;2023-02-23T05:22:19;100742.19;;;6.39;100.00
63088;BME280;49173;43.164;27.786;2023-02-23T05:24:45;100745.66;;;6.41;100.00
63088;BME280;49173;43.164;27.786;2023-02-23T05:27:11;100739.53;;;6.39;100.00
63088;BME280;49173;43.164;27.786;2023-02-23T05:29:38;100756.44;;;6.38;100.00
63088;BME280;49173;43.164;27.786;2023-02-23T05:32:04;100759.78;;;6.45;100.00
63088;BME280;49173;43.164;27.786;2023-02-23T05:34:30;100763.38;;;6.44;100.00
63088;BME280;49173;43.164;27.786;2023-02-23T05:36:56;100760.72;;;6.44;100.00
63088;BME280;49173;43.164;27.786;2023-02-23T05:39:22;100757.25;;;6.42;100.00
63088;BME280;49173;43.164;27.786;2023-02-23T05:41:48;100767.78;;;6.45;100.00
63088;BME280;49173;43.164;27.786;2023-02-23T05:44:14;100766.09;;;6.42;100.00
63088;BME280;49173;43.164;27.786;2023-02-23T05:46:40;100776.78;;;6.42;100.00
63088;BME280;49173;43.164;27.786;2023-02-23T05:49:06;100783.84;;;6.43;100.00
63088;BME280;49173;43.164;27.786;2023-02-23T05:51:33;100790.84;;;6.46;100.00
63088;BME280;49173;43.164;27.786;2023-02-23T05:53:59;100798.84;;;6.46;100.00
63088;BME280;49173;43.164;27.786;2023-02-23T05:56:25;100796.13;;;6.47;100.00
63088;BME280;49173;43.164;27.786;2023-02-23T05:58:53;100800.41;;;6.53;100.00
63088;BME280;49173;43.164;27.786;2023-02-23T06:01:20;100801.16;;;6.58;100.00
63088;BME280;49173;43.164;27.786;2023-02-23T06:03:46;100799.53;;;6.52;100.00
63088;BME280;49173;43.164;27.786;2023-02-23T06:06:13;100796.78;;;6.55;100.00
63088;BME280;49173;43.164;27.786;2023-02-23T06:08:40;100806.53;;;6.56;100.00
63088;BME280;49173;43.164;27.786;2023-02-23T06:11:06;100806.53;;;6.56;100.00
63088;BME280;49173;43.164;27.786;2023-02-23T06:13:33;100807.59;;;6.51;100.00
63088;BME280;49173;43.164;27.786;2023-02-23T06:15:59;100807.59;;;6.51;100.00
63088;BME280;49173;43.164;27.786;2023-02-23T06:18:26;100816.34;;;6.56;100.00
63088;BME280;49173;43.164;27.786;2023-02-23T06:20:52;100815.25;;;6.61;100.00
63088;BME280;49173;43.164;27.786;2023-02-23T06:23:18;100822.25;;;6.66;100.00
63088;BME280;49173;43.164;27.786;2023-02-23T06:25:45;100814.09;;;6.70;100.00
63088;BME280;49173;43.164;27.786;2023-02-23T06:28:11;100819.44;;;6.70;100.00
63088;BME280;49173;43.164;27.786;2023-02-23T06:30:38;100821.22;;;6.70;100.00
63088;BME280;49173;43.164;27.786;2023-02-23T06:33:04;100832.78;;;6.70;100.00
63088;BME280;49173;43.164;27.786;2023-02-23T06:35:31;100841.59;;;6.72;100.00
63088;BME280;49173;43.164;27.786;2023-02-23T06:37:58;100837.13;;;6.73;100.00
63088;BME280;49173;43.164;27.786;2023-02-23T06:40:27;100837.03;;;6.76;100.00
63088;BME280;49173;43.164;27.786;2023-02-23T06:42:53;100836.88;;;6.80;100.00
63088;BME280;49173;43.164;27.786;2023-02-23T06:45:20;100834.94;;;6.85;100.00
63088;BME280;49173;43.164;27.786;2023-02-23T06:47:46;100848.03;;;6.93;100.00
63088;BME280;49173;43.164;27.786;2023-02-23T06:50:13;100842.59;;;6.96;100.00
63088;BME280;49173;43.164;27.786;2023-02-23T06:52:40;100841.53;;;7.02;100.00
63088;BME280;49173;43.164;27.786;2023-02-23T06:55:06;100848.59;;;7.03;100.00
63088;BME280;49173;43.164;27.786;2023-02-23T06:57:32;100850.22;;;7.08;100.00
63088;BME280;49173;43.164;27.786;2023-02-23T06:59:58;100844.75;;;7.11;100.00
63088;BME280;49173;43.164;27.786;2023-02-23T07:02:26;100850.06;;;7.13;99.42
63088;BME280;49173;43.164;27.786;2023-02-23T07:04:52;100845.78;;;7.07;99.20
63088;BME280;49173;43.164;27.786;2023-02-23T07:07:18;100850.06;;;7.13;99.71
63088;BME280;49173;43.164;27.786;2023-02-23T07:09:44;100850.63;;;7.23;99.54
63088;BME280;49173;43.164;27.786;2023-02-23T07:12:10;100854.88;;;7.28;99.85
63088;BME280;49173;43.164;27.786;2023-02-23T07:14:36;100868.13;;;7.31;99.17
63088;BME280;49173;43.164;27.786;2023-02-23T07:17:04;100867.06;;;7.37;98.11
63088;BME280;49173;43.164;27.786;2023-02-23T07:19:31;100864.25;;;7.41;97.87
63088;BME280;49173;43.164;27.786;2023-02-23T07:21:57;100864.31;;;7.38;97.10
63088;BME280;49173;43.164;27.786;2023-02-23T07:24:23;100873.19;;;7.40;97.18
63088;BME280;49173;43.164;27.786;2023-02-23T07:26:49;100868.84;;;7.36;96.82
63088;BME280;49173;43.164;27.786;2023-02-23T07:29:16;100873.19;;;7.39;97.45
63088;BME280;49173;43.164;27.786;2023-02-23T07:31:43;100873.06;;;7.43;97.53
63088;BME280;49173;43.164;27.786;2023-02-23T07:34:09;100873.88;;;7.46;96.95
63088;BME280;49173;43.164;27.786;2023-02-23T07:36:35;100872.13;;;7.44;96.71
63088;BME280;49173;43.164;27.786;2023-02-23T07:39:02;100881.00;;;7.45;96.90
63088;BME280;49173;43.164;27.786;2023-02-23T07:41:28;100871.06;;;7.50;96.78
63088;BME280;49173;43.164;27.786;2023-02-23T07:43:54;100863.78;;;7.54;96.39
63088;BME280;49173;43.164;27.786;2023-02-23T07:46:19;100872.72;;;7.54;96.57
63088;BME280;49173;43.164;27.786;2023-02-23T07:48:45;100873.56;;;7.55;96.80
63088;BME280;49173;43.164;27.786;2023-02-23T07:51:13;100882.50;;;7.54;97.01
63088;BME280;49173;43.164;27.786;2023-02-23T07:53:40;100884.94;;;7.60;97.21
63088;BME280;49173;43.164;27.786;2023-02-23T07:56:07;100882.00;;;7.69;97.00
63088;BME280;49173;43.164;27.786;2023-02-23T07:58:40;100877.38;;;7.72;96.63
63088;BME280;49173;43.164;27.786;2023-02-23T08:01:07;100890.66;;;7.76;96.40
63088;BME280;49173;43.164;27.786;2023-02-23T08:03:34;100898.34;;;7.85;95.92
63088;BME280;49173;43.164;27.786;2023-02-23T08:05:59;100894.47;;;7.93;95.97
63088;BME280;49173;43.164;27.786;2023-02-23T08:08:26;100895.06;;;8.02;95.57
63088;BME280;49173;43.164;27.786;2023-02-23T08:11:01;100892.03;;;8.12;94.66
63088;BME280;49173;43.164;27.786;2023-02-23T08:13:28;100900.63;;;8.20;93.91
63088;BME280;49173;43.164;27.786;2023-02-23T08:15:54;100899.41;;;8.29;93.93
63088;BME280;49173;43.164;27.786;2023-02-23T08:18:20;100912.59;;;8.35;92.55
63088;BME280;49173;43.164;27.786;2023-02-23T08:20:45;100910.81;;;8.34;91.60
63088;BME280;49173;43.164;27.786;2023-02-23T08:23:11;100910.16;;;8.27;91.70
63088;BME280;49173;43.164;27.786;2023-02-23T08:25:37;100904.00;;;8.25;92.33
63088;BME280;49173;43.164;27.786;2023-02-23T08:28:03;100909.44;;;8.22;92.38
63088;BME280;49173;43.164;27.786;2023-02-23T08:30:32;100911.97;;;8.27;92.17
63088;BME280;49173;43.164;27.786;2023-02-23T08:32:58;100912.78;;;8.29;91.87
63088;BME280;49173;43.164;27.786;2023-02-23T08:35:26;100925.03;;;8.36;92.61
63088;BME280;49173;43.164;27.786;2023-02-23T08:37:52;100916.03;;;8.39;92.17
63088;BME280;49173;43.164;27.786;2023-02-23T08:40:18;100928.13;;;8.49;92.26
63088;BME280;49173;43.164;27.786;2023-02-23T08:42:46;100919.06;;;8.53;91.17
63088;BME280;49173;43.164;27.786;2023-02-23T08:45:14;100930.75;;;8.50;90.61
63088;BME280;49173;43.164;27.786;2023-02-23T08:47:40;100935.28;;;8.48;90.66
63088;BME280;49173;43.164;27.786;2023-02-23T08:50:06;100938.31;;;8.39;90.43
63088;BME280;49173;43.164;27.786;2023-02-23T08:52:36;100941.00;;;8.38;90.37
63088;BME280;49173;43.164;27.786;2023-02-23T08:55:03;100939.19;;;8.40;90.89
63088;BME280;49173;43.164;27.786;2023-02-23T08:57:32;100938.31;;;8.39;90.63
63088;BME280;49173;43.164;27.786;2023-02-23T08:59:58;100943.41;;;8.45;90.61
63088;BME280;49173;43.164;27.786;2023-02-23T09:02:24;100944.31;;;8.46;90.23
63088;BME280;49173;43.164;27.786;2023-02-23T09:04:49;100951.44;;;8.45;89.74
63088;BME280;49173;43.164;27.786;2023-02-23T09:07:20;100942.38;;;8.49;90.39
63088;BME280;49173;43.164;27.786;2023-02-23T09:09:55;100951.16;;;8.53;90.50
63088;BME280;49173;43.164;27.786;2023-02-23T09:12:21;100945.69;;;8.56;90.15
63088;BME280;49173;43.164;27.786;2023-02-23T09:14:46;100945.69;;;8.56;90.12
63088;BME280;49173;43.164;27.786;2023-02-23T09:17:12;100956.41;;;8.56;89.89
63088;BME280;49173;43.164;27.786;2023-02-23T09:19:38;100955.47;;;8.57;89.59
63088;BME280;49173;43.164;27.786;2023-02-23T09:22:04;100964.34;;;8.58;88.50
63088;BME280;49173;43.164;27.786;2023-02-23T09:24:29;100965.28;;;8.57;88.30
63088;BME280;49173;43.164;27.786;2023-02-23T09:26:56;100973.09;;;8.63;87.45
63088;BME280;49173;43.164;27.786;2023-02-23T09:29:22;100965.22;;;8.58;86.80
63088;BME280;49173;43.164;27.786;2023-02-23T09:31:48;100972.50;;;8.55;87.14
63088;BME280;49173;43.164;27.786;2023-02-23T09:34:18;100964.25;;;8.61;87.02
63088;BME280;49173;43.164;27.786;2023-02-23T09:36:44;100975.88;;;8.60;85.25
63088;BME280;49173;43.164;27.786;2023-02-23T09:39:09;100970.50;;;8.60;86.89
63088;BME280;49173;43.164;27.786;2023-02-23T09:42:09;100964.94;;;8.66;87.17
63088;BME280;49173;43.164;27.786;2023-02-23T09:49:58;100982.00;;;8.87;84.93
63088;BME280;49173;43.164;27.786;2023-02-23T09:52:27;100976.59;;;8.88;85.29
63088;BME280;49173;43.164;27.786;2023-02-23T09:54:58;100977.28;;;8.93;85.48
63088;BME280;49173;43.164;27.786;2023-02-23T09:57:41;100981.41;;;9.02;84.66
63088;BME280;49173;43.164;27.786;2023-02-23T10:00:21;100982.47;;;8.98;82.29
63088;BME280;49173;43.164;27.786;2023-02-23T10:05:30;100998.91;;;8.87;83.15
63088;BME280;49173;43.164;27.786;2023-02-23T10:08:06;100999.44;;;8.73;83.77
63088;BME280;49173;43.164;27.786;2023-02-23T10:10:57;100992.53;;;8.68;85.19
63088;BME280;49173;43.164;27.786;2023-02-23T10:17:15;100991.25;;;8.55;85.77
63088;BME280;49173;43.164;27.786;2023-02-23T10:22:12;100989.22;;;8.61;86.01
63088;BME280;49173;43.164;27.786;2023-02-23T10:24:49;100987.63;;;8.56;86.08
63088;BME280;49173;43.164;27.786;2023-02-23T10:27:21;100981.47;;;8.53;86.39
63088;BME280;49173;43.164;27.786;2023-02-23T10:29:52;100985.88;;;8.55;86.40
63088;BME280;49173;43.164;27.786;2023-02-23T10:32:40;100985.00;;;8.54;86.71
63088;BME280;49173;43.164;27.786;2023-02-23T10:35:15;100979.69;;;8.52;87.12
63088;BME280;49173;43.164;27.786;2023-02-23T10:37:41;100994.84;;;8.53;87.51
63088;BME280;49173;43.164;27.786;2023-02-23T10:40:24;100994.78;;;8.55;86.47
63088;BME280;49173;43.164;27.786;2023-02-23T10:42:56;100985.09;;;8.51;86.92
63088;BME280;49173;43.164;27.786;2023-02-23T10:45:25;100995.72;;;8.54;87.44
63088;BME280;49173;43.164;27.786;2023-02-23T10:48:12;100993.72;;;8.59;87.07
63088;BME280;49173;43.164;27.786;2023-02-23T10:50:44;100988.50;;;8.56;86.10
63088;BME280;49173;43.164;27.786;2023-02-23T10:55:46;100993.63;;;8.62;86.71
63088;BME280;49173;43.164;27.786;2023-02-23T10:58:27;100994.56;;;8.61;85.60
63088;BME280;49173;43.164;27.786;2023-02-23T11:03:44;100985.66;;;8.61;86.57
63088;BME280;49173;43.164;27.786;2023-02-23T11:06:30;100994.28;;;8.69;86.97
63088;BME280;49173;43.164;27.786;2023-02-23T11:09:29;100985.97;;;8.76;84.61
63088;BME280;49173;43.164;27.786;2023-02-23T11:12:18;100991.97;;;8.83;84.32
63088;BME280;49173;43.164;27.786;2023-02-23T11:14:49;100992.69;;;8.87;83.91
63088;BME280;49173;43.164;27.786;2023-02-23T11:17:36;100987.00;;;8.96;82.69
63088;BME280;49173;43.164;27.786;2023-02-23T11:20:34;100976.34;;;8.94;82.14
63088;BME280;49173;43.164;27.786;2023-02-23T11:23:28;100987.91;;;8.95;81.41
63088;BME280;49173;43.164;27.786;2023-02-23T11:26:01;100990.59;;;8.95;81.98
63088;BME280;49173;43.164;27.786;2023-02-23T11:28:39;100994.97;;;8.97;82.86
63088;BME280;49173;43.164;27.786;2023-02-23T11:31:16;100988.91;;;8.92;82.65
63088;BME280;49173;43.164;27.786;2023-02-23T11:33:45;100989.09;;;8.88;82.38
63088;BME280;49173;43.164;27.786;2023-02-23T11:36:16;101005.28;;;8.85;83.10
63088;BME280;49173;43.164;27.786;2023-02-23T11:38:45;100994.69;;;8.82;82.90
63088;BME280;49173;43.164;27.786;2023-02-23T11:41:22;100991.09;;;8.83;82.40
63088;BME280;49173;43.164;27.786;2023-02-23T11:44:03;100992.19;;;8.77;82.20
63088;BME280;49173;43.164;27.786;2023-02-23T11:46:31;100996.50;;;8.81;81.43
63088;BME280;49173;43.164;27.786;2023-02-23T11:49:12;101002.53;;;8.86;82.47
63088;BME280;49173;43.164;27.786;2023-02-23T11:51:47;101006.16;;;8.85;82.37
63088;BME280;49173;43.164;27.786;2023-02-23T11:54:29;101015.34;;;8.78;81.64
63088;BME280;49173;43.164;27.786;2023-02-23T11:56:57;101013.06;;;8.67;82.48
63088;BME280;49173;43.164;27.786;2023-02-23T11:59:28;101005.28;;;8.60;82.87
63088;BME280;49173;43.164;27.786;2023-02-23T12:02:13;100998.19;;;8.59;83.31
63088;BME280;49173;43.164;27.786;2023-02-23T12:04:44;101002.88;;;8.53;83.54
63088;BME280;49173;43.164;27.786;2023-02-23T12:09:50;101000.34;;;8.49;83.80
63088;BME280;49173;43.164;27.786;2023-02-23T12:12:22;101018.09;;;8.51;84.05
63088;BME280;49173;43.164;27.786;2023-02-23T12:15:19;101014.59;;;8.49;82.95
63088;BME280;49173;43.164;27.786;2023-02-23T12:17:52;101011.13;;;8.47;83.24
63088;BME280;49173;43.164;27.786;2023-02-23T12:20:24;101010.63;;;8.36;83.56
63088;BME280;49173;43.164;27.786;2023-02-23T12:22:58;100999.28;;;8.28;83.75
63088;BME280;49173;43.164;27.786;2023-02-23T12:28:26;101015.31;;;8.28;84.45
63088;BME280;49173;43.164;27.786;2023-02-23T12:31:05;101015.13;;;8.34;84.37
63088;BME280;49173;43.164;27.786;2023-02-23T12:33:47;101025.00;;;8.32;84.50
63088;BME280;49173;43.164;27.786;2023-02-23T12:39:02;101018.47;;;8.41;84.26
63088;BME280;49173;43.164;27.786;2023-02-23T12:41:54;101026.66;;;8.36;84.10
63088;BME280;49173;43.164;27.786;2023-02-23T12:44:52;101022.41;;;8.29;84.44
63088;BME280;49173;43.164;27.786;2023-02-23T12:51:13;101020.22;;;8.42;84.96
63088;BME280;49173;43.164;27.786;2023-02-23T12:53:41;101031.78;;;8.42;84.21
63088;BME280;49173;43.164;27.786;2023-02-23T12:56:21;101026.56;;;8.39;84.30
63088;BME280;49173;43.164;27.786;2023-02-23T13:05:18;101030.88;;;8.43;84.86
63088;BME280;49173;43.164;27.786;2023-02-23T13:13:07;101028.56;;;8.33;85.22
63088;BME280;49173;43.164;27.786;2023-02-23T13:22:06;101027.69;;;8.32;84.34
63088;BME280;49173;43.164;27.786;2023-02-23T13:24:42;101038.31;;;8.34;83.96
63088;BME280;49173;43.164;27.786;2023-02-23T13:27:42;101037.44;;;8.33;84.51
63088;BME280;49173;43.164;27.786;2023-02-23T13:30:15;101032.16;;;8.32;84.37
63088;BME280;49173;43.164;27.786;2023-02-23T13:32:41;101039.25;;;8.33;83.99
63088;BME280;49173;43.164;27.786;2023-02-23T13:35:19;101038.16;;;8.38;83.91
63088;BME280;49173;43.164;27.786;2023-02-23T13:46:17;101053.50;;;8.33;84.07
63088;BME280;49173;43.164;27.786;2023-02-23T13:51:47;101054.44;;;8.31;84.02
63088;BME280;49173;43.164;27.786;2023-02-23T13:56:53;101061.81;;;8.50;84.13
63088;BME280;49173;43.164;27.786;2023-02-23T13:59:27;101047.91;;;8.41;82.98
63088;BME280;49173;43.164;27.786;2023-02-23T14:01:55;101053.34;;;8.38;83.11
63088;BME280;49173;43.164;27.786;2023-02-23T14:04:34;101054.56;;;8.27;82.29
63088;BME280;49173;43.164;27.786;2023-02-23T14:09:45;101065.78;;;8.12;84.81
63088;BME280;49173;43.164;27.786;2023-02-23T14:12:16;101063.41;;;8.03;84.09
63088;BME280;49173;43.164;27.786;2023-02-23T14:14:53;101075.88;;;8.04;84.29
63088;BME280;49173;43.164;27.786;2023-02-23T14:31:03;101074.78;;;7.83;85.73
63088;BME280;49173;43.164;27.786;2023-02-23T14:39:22;101086.81;;;7.68;86.43
63088;BME280;49173;43.164;27.786;2023-02-23T14:42:20;101093.94;;;7.68;85.77
63088;BME280;49173;43.164;27.786;2023-02-23T14:44:49;101072.72;;;7.63;86.29
63088;BME280;49173;43.164;27.786;2023-02-23T14:47:20;101078.91;;;7.65;86.28
63088;BME280;49173;43.164;27.786;2023-02-23T14:50:02;101078.06;;;7.63;86.05
63088;BME280;49173;43.164;27.786;2023-02-23T14:52:35;101079.94;;;7.60;85.86
63088;BME280;49173;43.164;27.786;2023-02-23T14:57:41;101084.34;;;7.62;85.76
63088;BME280;49173;43.164;27.786;2023-02-23T15:00:16;101077.22;;;7.63;86.04
63088;BME280;49173;43.164;27.786;2023-02-23T15:03:04;101081.00;;;7.56;86.02
63088;BME280;49173;43.164;27.786;2023-02-23T15:05:36;101103.38;;;7.52;85.90
63088;BME280;49173;43.164;27.786;2023-02-23T15:08:15;101095.50;;;7.47;86.13
63088;BME280;49173;43.164;27.786;2023-02-23T15:10:47;101090.16;;;7.47;86.12